sensor_id;sensor_type;location;lat;lon;timestamp;temperature;humidity
6174;DHT22;3120;48.796;9.796;2023-05-16T00:00:55;9.00;99.90
6174;DHT22;3120;48.796;9.796;2023-05-16T00:03:22;9.00;99.90
6174;DHT22;3120;48.796;9.796;2023-05-16T00:05:48;8.90;99.90
6174;DHT22;3120;48.796;9.796;2023-05-16T00:08:15;8.90;99.90
6174;DHT22;3120;48.796;9.796;2023-05-16T00:10:40;8.80;99.90
6174;DHT22;3120;48.796;9.796;2023-05-16T00:13:06;8.80;99.90
6174;DHT22;3120;48.796;9.796;2023-05-16T00:15:31;8.80;99.90
6174;DHT22;3120;48.796;9.796;2023-05-16T00:17:58;8.70;99.90
6174;DHT22;3120;48.796;9.796;2023-05-16T00:20:27;8.70;99.90
6174;DHT22;3120;48.796;9.796;2023-05-16T00:22:53;8.70;99.90
6174;DHT22;3120;48.796;9.796;2023-05-16T00:25:19;8.70;99.90
6174;DHT22;3120;48.796;9.796;2023-05-16T00:27:45;8.70;99.90
6174;DHT22;3120;48.796;9.796;2023-05-16T00:30:11;8.70;99.90
6174;DHT22;3120;48.796;9.796;2023-05-16T00:32:37;8.70;99.90
6174;DHT22;3120;48.796;9.796;2023-05-16T00:35:03;8.70;99.90
6174;DHT22;3120;48.796;9.796;2023-05-16T00:37:28;8.60;99.90
6174;DHT22;3120;48.796;9.796;2023-05-16T00:39:54;8.60;99.90
6174;DHT22;3120;48.796;9.796;2023-05-16T00:42:20;8.60;99.90
6174;DHT22;3120;48.796;9.796;2023-05-16T00:44:46;8.50;99.90
6174;DHT22;3120;48.796;9.796;2023-05-16T00:47:12;8.60;99.90
6174;DHT22;3120;48.796;9.796;2023-05-16T00:49:38;8.50;99.90
6174;DHT22;3120;48.796;9.796;2023-05-16T00:52:04;8.50;99.90
6174;DHT22;3120;48.796;9.796;2023-05-16T00:54:30;8.40;99.90
6174;DHT22;3120;48.796;9.796;2023-05-16T00:56:56;8.40;99.90
6174;DHT22;3120;48.796;9.796;2023-05-16T00:59:22;8.40;99.90
6174;DHT22;3120;48.796;9.796;2023-05-16T01:01:49;8.40;99.90
6174;DHT22;3120;48.796;9.796;2023-05-16T01:04:16;8.40;99.90
6174;DHT22;3120;48.796;9.796;2023-05-16T01:06:42;8.40;99.90
6174;DHT22;3120;48.796;9.796;2023-05-16T01:09:08;8.40;99.90
6174;DHT22;3120;48.796;9.796;2023-05-16T01:12:06;8.30;99.90
6174;DHT22;3120;48.796;9.796;2023-05-16T01:25:53;8.30;99.90
6174;DHT22;3120;48.796;9.796;2023-05-16T01:28:15;8.30;99.90
6174;DHT22;3120;48.796;9.796;2023-05-16T01:30:41;8.30;99.90
6174;DHT22;3120;48.796;9.796;2023-05-16T01:33:08;8.30;99.90
6174;DHT22;3120;48.796;9.796;2023-05-16T01:35:39;8.30;99.90
6174;DHT22;3120;48.796;9.796;2023-05-16T01:40:55;8.30;99.90
6174;DHT22;3120;48.796;9.796;2023-05-16T01:43:43;8.30;99.90
6174;DHT22;3120;48.796;9.796;2023-05-16T01:46:12;8.20;99.90
6174;DHT22;3120;48.796;9.796;2023-05-16T01:48:43;8.20;99.90
6174;DHT22;3120;48.796;9.796;2023-05-16T01:51:12;8.30;99.90
6174;DHT22;3120;48.796;9.796;2023-05-16T01:53:38;8.30;99.90
6174;DHT22;3120;48.796;9.796;2023-05-16T01:56:09;8.20;99.90
6174;DHT22;3120;48.796;9.796;2023-05-16T01:58:36;8.30;99.90
6174;DHT22;3120;48.796;9.796;2023-05-16T02:01:03;8.30;99.90
6174;DHT22;3120;48.796;9.796;2023-05-16T02:03:30;8.30;99.90
6174;DHT22;3120;48.796;9.796;2023-05-16T02:05:56;8.40;99.90
6174;DHT22;3120;48.796;9.796;2023-05-16T02:08:23;8.40;99.90
6174;DHT22;3120;48.796;9.796;2023-05-16T02:10:51;8.40;99.90
6174;DHT22;3120;48.796;9.796;2023-05-16T02:13:16;8.40;99.90
6174;DHT22;3120;48.796;9.796;2023-05-16T02:15:42;8.50;99.90
6174;DHT22;3120;48.796;9.796;2023-05-16T02:18:08;8.50;99.90
6174;DHT22;3120;48.796;9.796;2023-05-16T02:20:34;8.50;99.90
6174;DHT22;3120;48.796;9.796;2023-05-16T02:23:00;8.50;99.90
6174;DHT22;3120;48.796;9.796;2023-05-16T02:25:25;8.50;99.90
6174;DHT22;3120;48.796;9.796;2023-05-16T02:27:51;8.60;99.90
6174;DHT22;3120;48.796;9.796;2023-05-16T02:30:17;8.50;99.90
6174;DHT22;3120;48.796;9.796;2023-05-16T02:32:42;8.50;99.90
6174;DHT22;3120;48.796;9.796;2023-05-16T02:35:11;8.50;99.90
6174;DHT22;3120;48.796;9.796;2023-05-16T02:37:37;8.50;99.90
6174;DHT22;3120;48.796;9.796;2023-05-16T02:40:03;8.40;99.90
6174;DHT22;3120;48.796;9.796;2023-05-16T02:42:32;8.40;99.90
6174;DHT22;3120;48.796;9.796;2023-05-16T02:44:58;8.50;99.90
6174;DHT22;3120;48.796;9.796;2023-05-16T02:47:23;8.50;99.90
6174;DHT22;3120;48.796;9.796;2023-05-16T02:49:49;8.50;99.90
6174;DHT22;3120;48.796;9.796;2023-05-16T02:52:17;8.50;99.90
6174;DHT22;3120;48.796;9.796;2023-05-16T02:54:42;8.50;99.90
6174;DHT22;3120;48.796;9.796;2023-05-16T02:57:08;8.40;99.90
6174;DHT22;3120;48.796;9.796;2023-05-16T02:59:34;8.40;99.90
6174;DHT22;3120;48.796;9.796;2023-05-16T03:02:00;8.30;99.90
6174;DHT22;3120;48.796;9.796;2023-05-16T03:04:26;8.30;99.90
6174;DHT22;3120;48.796;9.796;2023-05-16T03:06:52;8.30;99.90
6174;DHT22;3120;48.796;9.796;2023-05-16T03:09:17;8.30;99.90
6174;DHT22;3120;48.796;9.796;2023-05-16T03:11:44;8.30;99.90
6174;DHT22;3120;48.796;9.796;2023-05-16T03:14:09;8.30;99.90
6174;DHT22;3120;48.796;9.796;2023-05-16T03:16:35;8.30;99.90
6174;DHT22;3120;48.796;9.796;2023-05-16T03:19:03;8.30;99.90
6174;DHT22;3120;48.796;9.796;2023-05-16T03:21:28;8.20;99.90
6174;DHT22;3120;48.796;9.796;2023-05-16T03:23:54;8.20;99.90
6174;DHT22;3120;48.796;9.796;2023-05-16T03:26:20;8.10;99.90
6174;DHT22;3120;48.796;9.796;2023-05-16T03:28:47;8.20;99.90
6174;DHT22;3120;48.796;9.796;2023-05-16T03:31:12;8.20;99.90
6174;DHT22;3120;48.796;9.796;2023-05-16T03:33:38;8.20;99.90
6174;DHT22;3120;48.796;9.796;2023-05-16T03:36:04;8.10;99.90
6174;DHT22;3120;48.796;9.796;2023-05-16T03:38:29;8.00;99.90
6174;DHT22;3120;48.796;9.796;2023-05-16T03:40:55;8.00;99.90
6174;DHT22;3120;48.796;9.796;2023-05-16T03:43:21;8.00;99.90
6174;DHT22;3120;48.796;9.796;2023-05-16T03:45:46;8.00;99.90
6174;DHT22;3120;48.796;9.796;2023-05-16T03:48:12;8.00;99.90
6174;DHT22;3120;48.796;9.796;2023-05-16T03:50:37;8.00;99.90
6174;DHT22;3120;48.796;9.796;2023-05-16T03:55:31;7.90;99.90
6174;DHT22;3120;48.796;9.796;2023-05-16T03:57:57;8.00;99.90
6174;DHT22;3120;48.796;9.796;2023-05-16T04:00:22;8.00;99.90
6174;DHT22;3120;48.796;9.796;2023-05-16T04:02:48;8.00;99.90
6174;DHT22;3120;48.796;9.796;2023-05-16T04:05:13;8.00;99.90
6174;DHT22;3120;48.796;9.796;2023-05-16T04:07:39;8.10;99.90
6174;DHT22;3120;48.796;9.796;2023-05-16T04:10:06;8.20;99.90
6174;DHT22;3120;48.796;9.796;2023-05-16T04:12:32;8.30;99.90
6174;DHT22;3120;48.796;9.796;2023-05-16T04:14:57;8.30;99.90
6174;DHT22;3120;48.796;9.796;2023-05-16T04:17:23;8.30;99.90
6174;DHT22;3120;48.796;9.796;2023-05-16T04:19:49;8.30;99.90
6174;DHT22;3120;48.796;9.796;2023-05-16T04:22:14;8.40;99.90
6174;DHT22;3120;48.796;9.796;2023-05-16T04:24:40;8.40;99.90
6174;DHT22;3120;48.796;9.796;2023-05-16T04:27:07;8.50;99.90
6174;DHT22;3120;48.796;9.796;2023-05-16T04:29:36;8.40;99.90
6174;DHT22;3120;48.796;9.796;2023-05-16T04:32:02;8.50;99.90
6174;DHT22;3120;48.796;9.796;2023-05-16T04:34:28;8.60;99.90
6174;DHT22;3120;48.796;9.796;2023-05-16T04:36:54;8.70;99.90
6174;DHT22;3120;48.796;9.796;2023-05-16T04:39:20;8.80;99.90
6174;DHT22;3120;48.796;9.796;2023-05-16T04:41:45;8.80;99.90
6174;DHT22;3120;48.796;9.796;2023-05-16T04:44:11;8.90;99.90
6174;DHT22;3120;48.796;9.796;2023-05-16T04:46:37;8.90;99.90
6174;DHT22;3120;48.796;9.796;2023-05-16T04:49:02;8.90;99.90
6174;DHT22;3120;48.796;9.796;2023-05-16T04:51:28;8.90;99.90
6174;DHT22;3120;48.796;9.796;2023-05-16T04:53:54;8.90;99.90
6174;DHT22;3120;48.796;9.796;2023-05-16T04:56:19;8.90;99.90
6174;DHT22;3120;48.796;9.796;2023-05-16T04:58:45;9.00;99.90
6174;DHT22;3120;48.796;9.796;2023-05-16T05:01:11;9.10;99.90
6174;DHT22;3120;48.796;9.796;2023-05-16T05:03:36;9.20;99.90
6174;DHT22;3120;48.796;9.796;2023-05-16T05:06:02;9.20;99.90
6174;DHT22;3120;48.796;9.796;2023-05-16T05:08:29;9.30;99.90
6174;DHT22;3120;48.796;9.796;2023-05-16T05:10:55;9.30;99.90
6174;DHT22;3120;48.796;9.796;2023-05-16T05:13:21;9.40;99.90
6174;DHT22;3120;48.796;9.796;2023-05-16T05:15:46;9.40;99.90
6174;DHT22;3120;48.796;9.796;2023-05-16T05:18:12;9.50;99.90
6174;DHT22;3120;48.796;9.796;2023-05-16T05:20:37;9.40;99.90
6174;DHT22;3120;48.796;9.796;2023-05-16T05:23:03;9.50;99.90
6174;DHT22;3120;48.796;9.796;2023-05-16T05:25:28;9.50;99.90
6174;DHT22;3120;48.796;9.796;2023-05-16T05:27:54;9.60;99.90
6174;DHT22;3120;48.796;9.796;2023-05-16T05:30:20;9.70;99.90
6174;DHT22;3120;48.796;9.796;2023-05-16T05:32:45;9.80;99.90
6174;DHT22;3120;48.796;9.796;2023-05-16T05:35:11;9.40;99.90
6174;DHT22;3120;48.796;9.796;2023-05-16T05:37:36;9.90;99.90
6174;DHT22;3120;48.796;9.796;2023-05-16T05:40:02;10.00;99.90
6174;DHT22;3120;48.796;9.796;2023-05-16T05:42:28;10.10;99.90
6174;DHT22;3120;48.796;9.796;2023-05-16T05:44:54;10.20;99.90
6174;DHT22;3120;48.796;9.796;2023-05-16T05:47:19;10.40;99.90
6174;DHT22;3120;48.796;9.796;2023-05-16T05:49:46;10.40;99.90
6174;DHT22;3120;48.796;9.796;2023-05-16T05:52:11;10.40;99.90
6174;DHT22;3120;48.796;9.796;2023-05-16T05:54:37;10.50;99.90
6174;DHT22;3120;48.796;9.796;2023-05-16T05:57:03;10.50;99.90
6174;DHT22;3120;48.796;9.796;2023-05-16T05:59:28;10.60;99.90
6174;DHT22;3120;48.796;9.796;2023-05-16T06:01:54;10.70;99.90
6174;DHT22;3120;48.796;9.796;2023-05-16T06:04:20;10.80;99.90
6174;DHT22;3120;48.796;9.796;2023-05-16T06:06:46;10.80;99.90
6174;DHT22;3120;48.796;9.796;2023-05-16T06:09:12;10.80;99.90
6174;DHT22;3120;48.796;9.796;2023-05-16T06:11:41;11.00;99.90
6174;DHT22;3120;48.796;9.796;2023-05-16T06:14:07;11.00;99.90
6174;DHT22;3120;48.796;9.796;2023-05-16T06:16:33;11.10;99.90
6174;DHT22;3120;48.796;9.796;2023-05-16T06:18:59;11.20;99.90
6174;DHT22;3120;48.796;9.796;2023-05-16T06:21:25;11.20;99.90
6174;DHT22;3120;48.796;9.796;2023-05-16T06:23:50;11.30;99.90
6174;DHT22;3120;48.796;9.796;2023-05-16T06:26:16;11.30;99.90
6174;DHT22;3120;48.796;9.796;2023-05-16T06:28:41;11.30;99.90
6174;DHT22;3120;48.796;9.796;2023-05-16T06:31:07;11.20;99.90
6174;DHT22;3120;48.796;9.796;2023-05-16T06:33:34;11.40;99.90
6174;DHT22;3120;48.796;9.796;2023-05-16T06:35:59;11.50;99.90
6174;DHT22;3120;48.796;9.796;2023-05-16T06:38:25;11.60;99.90
6174;DHT22;3120;48.796;9.796;2023-05-16T06:40:50;11.60;99.90
6174;DHT22;3120;48.796;9.796;2023-05-16T06:43:16;11.60;99.90
6174;DHT22;3120;48.796;9.796;2023-05-16T06:45:43;11.60;99.90
6174;DHT22;3120;48.796;9.796;2023-05-16T06:48:09;11.60;99.90
6174;DHT22;3120;48.796;9.796;2023-05-16T06:50:35;11.60;99.90
6174;DHT22;3120;48.796;9.796;2023-05-16T06:53:01;11.70;99.90
6174;DHT22;3120;48.796;9.796;2023-05-16T06:55:26;11.70;99.90
6174;DHT22;3120;48.796;9.796;2023-05-16T06:57:52;11.80;99.90
6174;DHT22;3120;48.796;9.796;2023-05-16T07:00:18;11.90;99.90
6174;DHT22;3120;48.796;9.796;2023-05-16T07:02:43;11.90;99.90
6174;DHT22;3120;48.796;9.796;2023-05-16T07:05:09;11.90;99.90
6174;DHT22;3120;48.796;9.796;2023-05-16T07:07:34;12.00;99.90
6174;DHT22;3120;48.796;9.796;2023-05-16T07:10:00;12.10;99.90
6174;DHT22;3120;48.796;9.796;2023-05-16T07:12:26;12.10;99.90
6174;DHT22;3120;48.796;9.796;2023-05-16T07:14:52;12.10;99.90
6174;DHT22;3120;48.796;9.796;2023-05-16T07:17:17;12.30;99.90
6174;DHT22;3120;48.796;9.796;2023-05-16T07:19:43;12.20;99.90
6174;DHT22;3120;48.796;9.796;2023-05-16T07:22:13;12.20;99.90
6174;DHT22;3120;48.796;9.796;2023-05-16T07:24:39;12.40;99.90
6174;DHT22;3120;48.796;9.796;2023-05-16T07:27:05;12.40;99.90
6174;DHT22;3120;48.796;9.796;2023-05-16T07:29:31;12.40;50.30
6174;DHT22;3120;48.796;9.796;2023-05-16T07:31:57;12.50;41.30
6174;DHT22;3120;48.796;9.796;2023-05-16T07:34:22;12.60;1.00
6174;DHT22;3120;48.796;9.796;2023-05-16T07:36:48;12.50;1.00
6174;DHT22;3120;48.796;9.796;2023-05-16T07:39:14;12.60;1.00
6174;DHT22;3120;48.796;9.796;2023-05-16T07:41:39;12.70;1.00
6174;DHT22;3120;48.796;9.796;2023-05-16T07:44:05;12.70;99.90
6174;DHT22;3120;48.796;9.796;2023-05-16T07:46:30;12.70;1.00
6174;DHT22;3120;48.796;9.796;2023-05-16T07:48:56;12.70;1.00
6174;DHT22;3120;48.796;9.796;2023-05-16T07:51:22;12.70;1.00
6174;DHT22;3120;48.796;9.796;2023-05-16T07:53:47;12.80;1.00
6174;DHT22;3120;48.796;9.796;2023-05-16T07:56:13;12.90;1.00
6174;DHT22;3120;48.796;9.796;2023-05-16T07:58:39;12.90;99.90
6174;DHT22;3120;48.796;9.796;2023-05-16T08:01:06;12.90;99.90
6174;DHT22;3120;48.796;9.796;2023-05-16T08:03:31;12.90;99.90
6174;DHT22;3120;48.796;9.796;2023-05-16T08:05:57;12.80;99.90
6174;DHT22;3120;48.796;9.796;2023-05-16T08:08:22;12.90;99.90
6174;DHT22;3120;48.796;9.796;2023-05-16T08:10:48;12.90;1.00
6174;DHT22;3120;48.796;9.796;2023-05-16T08:13:13;12.80;1.00
6174;DHT22;3120;48.796;9.796;2023-05-16T08:15:39;12.90;99.90
6174;DHT22;3120;48.796;9.796;2023-05-16T08:18:14;12.90;99.90
6174;DHT22;3120;48.796;9.796;2023-05-16T08:20:40;12.90;99.90
6174;DHT22;3120;48.796;9.796;2023-05-16T08:23:07;12.80;99.90
6174;DHT22;3120;48.796;9.796;2023-05-16T08:25:33;12.80;99.90
6174;DHT22;3120;48.796;9.796;2023-05-16T08:27:58;12.80;99.90
6174;DHT22;3120;48.796;9.796;2023-05-16T08:30:26;12.80;99.90
6174;DHT22;3120;48.796;9.796;2023-05-16T08:32:52;12.70;1.00
6174;DHT22;3120;48.796;9.796;2023-05-16T08:35:17;12.80;1.00
6174;DHT22;3120;48.796;9.796;2023-05-16T08:37:43;12.80;1.00
6174;DHT22;3120;48.796;9.796;2023-05-16T08:40:09;12.80;1.00
6174;DHT22;3120;48.796;9.796;2023-05-16T08:42:36;12.90;1.00
6174;DHT22;3120;48.796;9.796;2023-05-16T08:45:02;13.00;99.90
6174;DHT22;3120;48.796;9.796;2023-05-16T08:47:30;13.00;1.00
6174;DHT22;3120;48.796;9.796;2023-05-16T08:49:57;13.10;99.90
6174;DHT22;3120;48.796;9.796;2023-05-16T08:52:26;13.10;62.20
6174;DHT22;3120;48.796;9.796;2023-05-16T08:55:02;13.20;99.90
6174;DHT22;3120;48.796;9.796;2023-05-16T08:57:34;13.20;1.00
6174;DHT22;3120;48.796;9.796;2023-05-16T08:59:59;13.20;99.90
6174;DHT22;3120;48.796;9.796;2023-05-16T09:02:28;13.30;99.90
6174;DHT22;3120;48.796;9.796;2023-05-16T09:04:55;13.40;1.00
6174;DHT22;3120;48.796;9.796;2023-05-16T09:07:22;13.40;1.00
6174;DHT22;3120;48.796;9.796;2023-05-16T09:09:48;13.40;99.90
6174;DHT22;3120;48.796;9.796;2023-05-16T09:12:13;13.40;99.90
6174;DHT22;3120;48.796;9.796;2023-05-16T09:14:39;13.40;99.90
6174;DHT22;3120;48.796;9.796;2023-05-16T09:17:06;13.40;99.90
6174;DHT22;3120;48.796;9.796;2023-05-16T09:19:36;13.40;99.90
6174;DHT22;3120;48.796;9.796;2023-05-16T09:22:02;13.30;99.90
6174;DHT22;3120;48.796;9.796;2023-05-16T09:24:28;13.30;99.90
6174;DHT22;3120;48.796;9.796;2023-05-16T09:26:53;13.20;99.90
6174;DHT22;3120;48.796;9.796;2023-05-16T09:29:19;13.20;1.00
6174;DHT22;3120;48.796;9.796;2023-05-16T09:31:48;13.20;99.90
6174;DHT22;3120;48.796;9.796;2023-05-16T09:34:14;13.10;98.10
6174;DHT22;3120;48.796;9.796;2023-05-16T09:36:39;13.00;99.90
6174;DHT22;3120;48.796;9.796;2023-05-16T09:39:06;13.00;99.90
6174;DHT22;3120;48.796;9.796;2023-05-16T09:41:34;13.00;99.90
6174;DHT22;3120;48.796;9.796;2023-05-16T09:44:04;13.00;7.10
6174;DHT22;3120;48.796;9.796;2023-05-16T09:46:33;13.00;99.90
6174;DHT22;3120;48.796;9.796;2023-05-16T09:48:59;12.90;96.80
6174;DHT22;3120;48.796;9.796;2023-05-16T09:51:25;12.90;1.00
6174;DHT22;3120;48.796;9.796;2023-05-16T09:53:51;12.90;99.90
6174;DHT22;3120;48.796;9.796;2023-05-16T09:58:44;12.80;15.00
6174;DHT22;3120;48.796;9.796;2023-05-16T10:01:11;12.80;1.00
6174;DHT22;3120;48.796;9.796;2023-05-16T10:03:39;12.80;99.90
6174;DHT22;3120;48.796;9.796;2023-05-16T10:06:06;12.80;24.20
6174;DHT22;3120;48.796;9.796;2023-05-16T10:08:33;12.90;99.90
6174;DHT22;3120;48.796;9.796;2023-05-16T10:11:01;12.90;99.90
6174;DHT22;3120;48.796;9.796;2023-05-16T10:13:31;12.80;1.00
6174;DHT22;3120;48.796;9.796;2023-05-16T10:15:59;12.80;1.00
6174;DHT22;3120;48.796;9.796;2023-05-16T10:18:30;12.80;99.90
6174;DHT22;3120;48.796;9.796;2023-05-16T10:20:57;12.80;99.90
6174;DHT22;3120;48.796;9.796;2023-05-16T10:23:25;12.80;21.50
6174;DHT22;3120;48.796;9.796;2023-05-16T10:25:51;12.80;99.90
6174;DHT22;3120;48.796;9.796;2023-05-16T10:28:17;12.80;1.00
6174;DHT22;3120;48.796;9.796;2023-05-16T10:30:44;12.80;99.90
6174;DHT22;3120;48.796;9.796;2023-05-16T10:33:16;12.80;99.90
6174;DHT22;3120;48.796;9.796;2023-05-16T10:35:43;12.70;99.90
6174;DHT22;3120;48.796;9.796;2023-05-16T10:38:10;12.70;1.00
6174;DHT22;3120;48.796;9.796;2023-05-16T10:40:37;12.70;1.00
6174;DHT22;3120;48.796;9.796;2023-05-16T10:43:04;12.70;1.00
6174;DHT22;3120;48.796;9.796;2023-05-16T10:45:30;12.70;1.00
6174;DHT22;3120;48.796;9.796;2023-05-16T10:48:01;12.80;99.90
6174;DHT22;3120;48.796;9.796;2023-05-16T10:50:42;12.90;99.90
6174;DHT22;3120;48.796;9.796;2023-05-16T10:56:21;12.80;1.00
6174;DHT22;3120;48.796;9.796;2023-05-16T10:58:40;12.90;1.00
6174;DHT22;3120;48.796;9.796;2023-05-16T11:01:23;12.90;99.90
6174;DHT22;3120;48.796;9.796;2023-05-16T11:11:46;13.30;99.90
6174;DHT22;3120;48.796;9.796;2023-05-16T11:19:52;13.30;1.00
6174;DHT22;3120;48.796;9.796;2023-05-16T11:24:58;13.40;99.90
6174;DHT22;3120;48.796;9.796;2023-05-16T11:27:27;13.60;1.00
6174;DHT22;3120;48.796;9.796;2023-05-16T11:29:57;13.70;1.00
6174;DHT22;3120;48.796;9.796;2023-05-16T11:32:23;14.00;99.90
6174;DHT22;3120;48.796;9.796;2023-05-16T11:34:52;14.20;99.90
6174;DHT22;3120;48.796;9.796;2023-05-16T11:37:19;14.10;99.90
6174;DHT22;3120;48.796;9.796;2023-05-16T11:39:45;14.10;99.90
6174;DHT22;3120;48.796;9.796;2023-05-16T11:42:11;14.10;99.90
6174;DHT22;3120;48.796;9.796;2023-05-16T11:44:38;14.20;99.90
6174;DHT22;3120;48.796;9.796;2023-05-16T11:47:05;14.20;99.90
6174;DHT22;3120;48.796;9.796;2023-05-16T11:49:32;14.20;99.90
6174;DHT22;3120;48.796;9.796;2023-05-16T11:51:58;14.30;1.00
6174;DHT22;3120;48.796;9.796;2023-05-16T11:54:24;14.40;99.90
6174;DHT22;3120;48.796;9.796;2023-05-16T11:56:50;14.40;1.00
6174;DHT22;3120;48.796;9.796;2023-05-16T11:59:16;14.30;1.00
6174;DHT22;3120;48.796;9.796;2023-05-16T12:01:42;14.30;1.00
6174;DHT22;3120;48.796;9.796;2023-05-16T12:04:12;14.40;1.00
6174;DHT22;3120;48.796;9.796;2023-05-16T12:06:39;14.40;99.90
6174;DHT22;3120;48.796;9.796;2023-05-16T12:09:05;14.70;1.00
6174;DHT22;3120;48.796;9.796;2023-05-16T12:11:42;14.40;99.90
6174;DHT22;3120;48.796;9.796;2023-05-16T12:14:11;14.30;1.00
6174;DHT22;3120;48.796;9.796;2023-05-16T12:16:38;14.20;1.00
6174;DHT22;3120;48.796;9.796;2023-05-16T12:19:04;14.20;99.90
6174;DHT22;3120;48.796;9.796;2023-05-16T12:21:31;14.10;1.00
6174;DHT22;3120;48.796;9.796;2023-05-16T12:23:57;14.10;99.90
6174;DHT22;3120;48.796;9.796;2023-05-16T12:26:25;14.10;1.00
6174;DHT22;3120;48.796;9.796;2023-05-16T12:28:56;14.10;1.00
6174;DHT22;3120;48.796;9.796;2023-05-16T12:31:24;14.00;99.90
6174;DHT22;3120;48.796;9.796;2023-05-16T12:33:52;14.10;1.00
6174;DHT22;3120;48.796;9.796;2023-05-16T12:36:19;14.00;1.00
6174;DHT22;3120;48.796;9.796;2023-05-16T12:38:46;14.10;99.90
6174;DHT22;3120;48.796;9.796;2023-05-16T12:41:17;14.10;10.30
6174;DHT22;3120;48.796;9.796;2023-05-16T12:43:43;14.10;1.00
6174;DHT22;3120;48.796;9.796;2023-05-16T12:46:09;14.00;99.90
6174;DHT22;3120;48.796;9.796;2023-05-16T12:48:36;14.10;1.00
6174;DHT22;3120;48.796;9.796;2023-05-16T12:51:14;14.10;99.90
6174;DHT22;3120;48.796;9.796;2023-05-16T12:53:44;14.00;99.90
6174;DHT22;3120;48.796;9.796;2023-05-16T12:56:11;14.20;1.00
6174;DHT22;3120;48.796;9.796;2023-05-16T12:58:38;14.30;99.90
6174;DHT22;3120;48.796;9.796;2023-05-16T13:01:04;14.40;1.00
6174;DHT22;3120;48.796;9.796;2023-05-16T13:03:31;14.50;1.00
6174;DHT22;3120;48.796;9.796;2023-05-16T13:05:57;14.50;99.90
6174;DHT22;3120;48.796;9.796;2023-05-16T13:08:23;14.50;99.90
6174;DHT22;3120;48.796;9.796;2023-05-16T13:10:49;14.60;1.00
6174;DHT22;3120;48.796;9.796;2023-05-16T13:13:15;14.50;99.90
6174;DHT22;3120;48.796;9.796;2023-05-16T13:15:41;14.40;1.00
6174;DHT22;3120;48.796;9.796;2023-05-16T13:18:07;14.60;99.90
6174;DHT22;3120;48.796;9.796;2023-05-16T13:20:33;14.70;1.00
6174;DHT22;3120;48.796;9.796;2023-05-16T13:22:59;14.80;99.90
6174;DHT22;3120;48.796;9.796;2023-05-16T13:25:28;14.70;1.00
6174;DHT22;3120;48.796;9.796;2023-05-16T13:27:53;14.60;1.00
6174;DHT22;3120;48.796;9.796;2023-05-16T13:30:20;14.70;99.90
6174;DHT22;3120;48.796;9.796;2023-05-16T13:33:01;14.70;99.90
6174;DHT22;3120;48.796;9.796;2023-05-16T13:35:26;14.80;99.90
6174;DHT22;3120;48.796;9.796;2023-05-16T13:37:52;15.00;99.90
6174;DHT22;3120;48.796;9.796;2023-05-16T13:40:18;14.90;99.90
6174;DHT22;3120;48.796;9.796;2023-05-16T13:42:43;14.90;1.00
6174;DHT22;3120;48.796;9.796;2023-05-16T13:45:09;14.80;99.90
6174;DHT22;3120;48.796;9.796;2023-05-16T13:47:34;14.60;99.90
6174;DHT22;3120;48.796;9.796;2023-05-16T13:50:01;14.70;1.00
6174;DHT22;3120;48.796;9.796;2023-05-16T13:52:33;14.60;99.90
6174;DHT22;3120;48.796;9.796;2023-05-16T13:54:59;14.30;1.00
6174;DHT22;3120;48.796;9.796;2023-05-16T13:57:24;13.90;1.00
6174;DHT22;3120;48.796;9.796;2023-05-16T13:59:51;13.70;99.90
6174;DHT22;3120;48.796;9.796;2023-05-16T14:02:18;13.60;1.00
6174;DHT22;3120;48.796;9.796;2023-05-16T14:04:43;13.40;99.90
6174;DHT22;3120;48.796;9.796;2023-05-16T14:07:09;13.40;99.90
6174;DHT22;3120;48.796;9.796;2023-05-16T14:09:35;13.40;1.00
6174;DHT22;3120;48.796;9.796;2023-05-16T14:12:04;13.20;98.50
6174;DHT22;3120;48.796;9.796;2023-05-16T14:14:30;13.00;1.00
6174;DHT22;3120;48.796;9.796;2023-05-16T14:16:56;13.00;1.00
6174;DHT22;3120;48.796;9.796;2023-05-16T14:19:21;13.00;99.90
6174;DHT22;3120;48.796;9.796;2023-05-16T14:21:47;12.90;37.20
6174;DHT22;3120;48.796;9.796;2023-05-16T14:24:12;13.00;99.90
6174;DHT22;3120;48.796;9.796;2023-05-16T14:26:38;13.10;99.90
6174;DHT22;3120;48.796;9.796;2023-05-16T14:29:03;13.20;99.90
6174;DHT22;3120;48.796;9.796;2023-05-16T14:31:29;13.10;1.00
6174;DHT22;3120;48.796;9.796;2023-05-16T14:33:55;13.20;1.00
6174;DHT22;3120;48.796;9.796;2023-05-16T14:36:20;13.30;47.00
6174;DHT22;3120;48.796;9.796;2023-05-16T14:38:46;13.50;34.90
6174;DHT22;3120;48.796;9.796;2023-05-16T14:41:13;13.50;1.00
6174;DHT22;3120;48.796;9.796;2023-05-16T14:43:39;13.60;1.00
6174;DHT22;3120;48.796;9.796;2023-05-16T14:46:04;13.60;1.00
6174;DHT22;3120;48.796;9.796;2023-05-16T14:48:30;13.70;1.00
6174;DHT22;3120;48.796;9.796;2023-05-16T14:50:55;13.60;1.00
6174;DHT22;3120;48.796;9.796;2023-05-16T14:53:21;13.50;1.00
6174;DHT22;3120;48.796;9.796;2023-05-16T14:55:47;13.50;99.90
6174;DHT22;3120;48.796;9.796;2023-05-16T14:58:13;13.50;99.90
6174;DHT22;3120;48.796;9.796;2023-05-16T15:00:38;13.40;1.00
6174;DHT22;3120;48.796;9.796;2023-05-16T15:03:04;13.40;1.00
6174;DHT22;3120;48.796;9.796;2023-05-16T15:05:30;13.50;1.00
6174;DHT22;3120;48.796;9.796;2023-05-16T15:07:55;13.50;1.00
6174;DHT22;3120;48.796;9.796;2023-05-16T15:10:21;13.60;1.00
6174;DHT22;3120;48.796;9.796;2023-05-16T15:12:46;13.80;1.00
6174;DHT22;3120;48.796;9.796;2023-05-16T15:15:12;13.70;99.90
6174;DHT22;3120;48.796;9.796;2023-05-16T15:17:39;13.60;99.90
6174;DHT22;3120;48.796;9.796;2023-05-16T15:20:08;13.80;99.90
6174;DHT22;3120;48.796;9.796;2023-05-16T15:22:38;13.90;99.90
6174;DHT22;3120;48.796;9.796;2023-05-16T15:25:05;14.00;99.90
6174;DHT22;3120;48.796;9.796;2023-05-16T15:27:31;13.90;99.90
6174;DHT22;3120;48.796;9.796;2023-05-16T15:29:57;13.60;99.90
6174;DHT22;3120;48.796;9.796;2023-05-16T15:32:23;13.40;99.90
6174;DHT22;3120;48.796;9.796;2023-05-16T15:34:49;13.30;99.90
6174;DHT22;3120;48.796;9.796;2023-05-16T15:37:14;13.30;1.00
6174;DHT22;3120;48.796;9.796;2023-05-16T15:39:40;13.30;1.00
6174;DHT22;3120;48.796;9.796;2023-05-16T15:42:07;13.20;1.00
6174;DHT22;3120;48.796;9.796;2023-05-16T15:44:32;13.10;1.00
6174;DHT22;3120;48.796;9.796;2023-05-16T15:46:59;13.00;1.00
6174;DHT22;3120;48.796;9.796;2023-05-16T15:49:24;13.00;99.90
6174;DHT22;3120;48.796;9.796;2023-05-16T15:51:51;13.10;99.90
6174;DHT22;3120;48.796;9.796;2023-05-16T15:54:16;13.10;1.00
6174;DHT22;3120;48.796;9.796;2023-05-16T15:56:42;13.10;1.00
6174;DHT22;3120;48.796;9.796;2023-05-16T15:59:08;13.10;1.00
6174;DHT22;3120;48.796;9.796;2023-05-16T16:01:33;13.00;1.00
6174;DHT22;3120;48.796;9.796;2023-05-16T16:03:59;13.00;1.00
6174;DHT22;3120;48.796;9.796;2023-05-16T16:06:24;13.10;99.90
6174;DHT22;3120;48.796;9.796;2023-05-16T16:08:50;12.20;1.00
6174;DHT22;3120;48.796;9.796;2023-05-16T16:11:17;13.00;99.90
6174;DHT22;3120;48.796;9.796;2023-05-16T16:13:43;12.90;1.00
6174;DHT22;3120;48.796;9.796;2023-05-16T16:16:08;12.90;1.00
6174;DHT22;3120;48.796;9.796;2023-05-16T16:18:34;12.80;1.00
6174;DHT22;3120;48.796;9.796;2023-05-16T16:20:59;12.90;1.00
6174;DHT22;3120;48.796;9.796;2023-05-16T16:23:25;12.90;99.90
6174;DHT22;3120;48.796;9.796;2023-05-16T16:25:51;13.00;99.90
6174;DHT22;3120;48.796;9.796;2023-05-16T16:28:17;12.90;99.90
6174;DHT22;3120;48.796;9.796;2023-05-16T16:30:42;13.00;99.90
6174;DHT22;3120;48.796;9.796;2023-05-16T16:33:08;13.10;99.90
6174;DHT22;3120;48.796;9.796;2023-05-16T16:35:34;13.00;82.40
6174;DHT22;3120;48.796;9.796;2023-05-16T16:38:00;13.00;99.90
6174;DHT22;3120;48.796;9.796;2023-05-16T16:40:25;13.00;99.90
6174;DHT22;3120;48.796;9.796;2023-05-16T16:42:51;13.00;99.90
6174;DHT22;3120;48.796;9.796;2023-05-16T16:45:17;12.90;64.30